Time;durP1;ratioP1;P1;durP2;ratioP2;P2;SDS_P1;SDS_P2;PMS_P1;PMS_P2;Temp;Humidity;BMP_temperature;BMP_pressure;BME280_temperature;BME280_humidity;BME280_pressure;Samples;Min_cycle;Max_cycle;Signal;HPM_P1;HPM_P2
2023/03/09 00:01:42;;;;;;;20.90;13.00;;;1.70;99.90;;;;;;4991131;28;20498;-76
2023/03/09 00:04:13;;;;;;;23.52;13.07;;;1.70;99.90;;;;;;4990224;28;20062;-76
2023/03/09 00:06:39;;;;;;;25.77;13.85;;;1.70;99.90;;;;;;4990774;28;20127;-76
2023/03/09 00:09:05;;;;;;;25.75;13.10;;;1.70;99.90;;;;;;4990753;28;20405;-76
2023/03/09 00:11:31;;;;;;;19.75;12.30;;;1.70;99.90;;;;;;4973061;28;20058;-75
2023/03/09 00:13:56;;;;;;;20.88;12.32;;;1.60;99.90;;;;;;4990214;28;20050;-75
2023/03/09 00:16:28;;;;;;;21.80;12.60;;;1.60;99.90;;;;;;4990431;28;20050;-74
2023/03/09 00:18:57;;;;;;;24.30;13.43;;;1.60;99.90;;;;;;4972649;28;20496;-75
2023/03/09 00:21:36;;;;;;;22.30;12.13;;;1.70;99.90;;;;;;4990759;28;20050;-75
2023/03/09 00:24:06;;;;;;;22.33;12.38;;;1.70;99.90;;;;;;4990001;28;20116;-75
2023/03/09 00:26:36;;;;;;;21.27;12.90;;;1.60;99.90;;;;;;4990411;28;20066;-76
2023/03/09 00:29:03;;;;;;;21.58;11.38;;;1.60;99.90;;;;;;4990351;28;20046;-76
2023/03/09 00:31:28;;;;;;;21.50;11.88;;;1.60;99.90;;;;;;4990204;28;20065;-76
2023/03/09 00:33:54;;;;;;;22.27;12.55;;;1.60;99.90;;;;;;4989959;28;20042;-75
2023/03/09 00:36:19;;;;;;;21.33;12.23;;;1.60;99.90;;;;;;4989853;28;20161;-75
2023/03/09 00:38:51;;;;;;;22.48;12.10;;;1.60;99.90;;;;;;5005326;28;20065;-74
2023/03/09 00:41:17;;;;;;;21.75;12.23;;;1.50;99.90;;;;;;4989636;28;20051;-76
2023/03/09 00:43:43;;;;;;;19.33;12.23;;;1.60;99.90;;;;;;4972323;28;20046;-76
2023/03/09 00:46:08;;;;;;;20.60;11.60;;;1.60;99.90;;;;;;4989700;28;20073;-75
2023/03/09 00:48:36;;;;;;;21.50;11.45;;;1.50;99.90;;;;;;4972707;28;20350;-76
2023/03/09 00:51:02;;;;;;;20.33;12.55;;;1.50;99.90;;;;;;5005375;28;20419;-77
2023/03/09 00:53:27;;;;;;;23.80;11.85;;;1.50;99.90;;;;;;4990127;28;20042;-76
2023/03/09 00:55:53;;;;;;;21.52;12.07;;;1.50;99.90;;;;;;4990166;28;20042;-76
2023/03/09 00:58:19;;;;;;;18.05;11.20;;;1.50;99.90;;;;;;4990105;28;20219;-75
2023/03/09 01:00:44;;;;;;;17.75;10.93;;;1.40;99.90;;;;;;4989885;28;20057;-77
2023/03/09 01:03:10;;;;;;;20.17;11.30;;;1.40;99.90;;;;;;4989889;28;20038;-76
2023/03/09 01:05:37;;;;;;;21.95;11.88;;;1.40;99.90;;;;;;4990135;28;20057;-76
2023/03/09 01:08:03;;;;;;;20.88;11.27;;;1.40;99.90;;;;;;4989991;28;20074;-75
2023/03/09 01:10:28;;;;;;;17.80;10.85;;;1.90;99.90;;;;;;4972597;28;20706;-74
2023/03/09 01:12:55;;;;;;;21.08;10.13;;;1.20;99.90;;;;;;4989930;28;20101;-77
2023/03/09 01:15:21;;;;;;;19.10;10.48;;;1.30;99.90;;;;;;4990372;28;20094;-75
2023/03/09 01:17:49;;;;;;;16.02;10.25;;;1.30;99.90;;;;;;4971915;28;20054;-75
2023/03/09 01:20:15;;;;;;;16.23;10.30;;;1.30;99.90;;;;;;4989947;28;20050;-75
2023/03/09 01:22:41;;;;;;;17.58;9.38;;;1.30;99.90;;;;;;5005076;28;20043;-75
2023/03/09 01:25:07;;;;;;;19.00;11.20;;;1.30;99.90;;;;;;4971770;28;20494;-76
2023/03/09 01:27:33;;;;;;;20.48;10.68;;;1.20;99.90;;;;;;4989990;28;20054;-76
2023/03/09 01:29:58;;;;;;;18.10;10.32;;;1.20;99.90;;;;;;4972370;28;20082;-76
2023/03/09 01:32:25;;;;;;;18.17;10.75;;;1.10;99.90;;;;;;4989810;28;20094;-75
2023/03/09 01:34:52;;;;;;;18.27;10.60;;;1.00;99.90;;;;;;4989687;28;20050;-77
2023/03/09 01:37:18;;;;;;;18.05;10.00;;;1.10;99.90;;;;;;4990011;28;20058;-74
2023/03/09 01:39:43;;;;;;;18.27;10.35;;;1.10;99.90;;;;;;4989738;28;20132;-76
2023/03/09 01:42:10;;;;;;;18.80;10.75;;;1.00;99.90;;;;;;4989674;28;20405;-76
2023/03/09 01:44:36;;;;;;;19.15;9.93;;;1.00;99.90;;;;;;4989445;28;20051;-76
2023/03/09 01:47:01;;;;;;;19.23;10.52;;;1.00;99.90;;;;;;4989702;28;20046;-76
2023/03/09 01:49:48;;;;;;;18.33;10.75;;;1.00;99.90;;;;;;5005022;28;20082;-75
2023/03/09 01:52:16;;;;;;;18.02;10.15;;;1.00;99.90;;;;;;4989746;28;20044;-76
2023/03/09 01:55:03;;;;;;;17.73;10.18;;;0.90;99.90;;;;;;4974443;28;20050;-75
2023/03/09 01:57:47;;;;;;;16.58;9.85;;;0.90;99.90;;;;;;4992867;28;20129;-75
2023/03/09 02:00:18;;;;;;;21.30;11.40;;;0.80;99.90;;;;;;4993072;28;20065;-77
2023/03/09 02:02:50;;;;;;;17.20;9.98;;;0.80;99.90;;;;;;4992998;28;20521;-75
2023/03/09 02:05:22;;;;;;;19.95;11.18;;;0.80;99.90;;;;;;4992767;28;20121;-75
2023/03/09 02:07:50;;;;;;;16.85;9.98;;;0.80;99.90;;;;;;4992953;28;20592;-75
2023/03/09 02:10:34;;;;;;;19.35;11.30;;;0.70;99.90;;;;;;4992528;28;20042;-75
2023/03/09 02:13:06;;;;;;;18.40;10.15;;;0.70;99.90;;;;;;4992981;28;20425;-76
2023/03/09 02:15:31;;;;;;;18.23;10.55;;;0.70;99.90;;;;;;4992656;28;20509;-76
2023/03/09 02:17:57;;;;;;;21.80;11.73;;;0.60;99.90;;;;;;4993078;28;20166;-75
2023/03/09 02:20:45;;;;;;;19.58;11.60;;;0.70;99.90;;;;;;4992886;28;20046;-75
2023/03/09 02:23:31;;;;;;;19.42;10.52;;;0.60;99.90;;;;;;4992912;28;20078;-76
2023/03/09 02:26:18;;;;;;;17.55;9.70;;;0.60;99.90;;;;;;4992248;28;20108;-75
2023/03/09 02:28:44;;;;;;;18.92;11.00;;;0.60;99.90;;;;;;4988220;28;20475;-75
2023/03/09 02:31:13;;;;;;;20.63;11.23;;;0.60;99.90;;;;;;4972974;28;20092;-75
2023/03/09 02:33:38;;;;;;;19.67;10.77;;;0.60;99.90;;;;;;4973251;28;20051;-75
2023/03/09 02:36:04;;;;;;;17.05;9.48;;;0.60;99.90;;;;;;4956012;28;20047;-76
2023/03/09 02:38:30;;;;;;;18.40;10.45;;;0.60;99.90;;;;;;4986829;28;20462;-75
2023/03/09 02:40:58;;;;;;;17.98;9.80;;;0.60;99.90;;;;;;4992332;28;20074;-75
2023/03/09 02:43:28;;;;;;;19.58;9.82;;;0.60;99.90;;;;;;4992326;28;20038;-76
2023/03/09 02:45:54;;;;;;;19.05;10.23;;;0.70;99.90;;;;;;4991958;28;20046;-75
2023/03/09 02:48:20;;;;;;;18.73;10.85;;;0.70;99.90;;;;;;4974721;28;20066;-75
2023/03/09 02:50:45;;;;;;;16.88;10.25;;;0.70;99.90;;;;;;4992374;28;20054;-75
2023/03/09 02:53:12;;;;;;;17.33;10.57;;;0.70;99.90;;;;;;4991985;28;20077;-76
2023/03/09 02:55:37;;;;;;;18.35;10.77;;;0.70;99.90;;;;;;4974409;28;20054;-75
2023/03/09 02:58:03;;;;;;;17.63;10.88;;;0.70;99.90;;;;;;4974270;28;20128;-76
2023/03/09 03:00:29;;;;;;;21.42;11.43;;;0.70;99.90;;;;;;4991453;28;20738;-77
2023/03/09 03:02:54;;;;;;;19.33;11.07;;;0.70;99.90;;;;;;4974005;28;20648;-75
2023/03/09 03:05:20;;;;;;;16.55;9.77;;;0.70;99.90;;;;;;4990908;28;20371;-75
2023/03/09 03:07:46;;;;;;;17.67;10.63;;;0.70;99.90;;;;;;4974585;28;20050;-76
2023/03/09 03:10:12;;;;;;;19.63;10.85;;;0.70;99.90;;;;;;4992135;28;20092;-75
2023/03/09 03:12:38;;;;;;;18.25;10.50;;;0.70;99.90;;;;;;4991439;28;20042;-76
2023/03/09 03:15:05;;;;;;;21.20;10.82;;;0.70;99.90;;;;;;4991525;28;20713;-76
2023/03/09 03:17:31;;;;;;;18.20;10.63;;;0.70;99.90;;;;;;4991377;28;20581;-77
2023/03/09 03:19:57;;;;;;;18.50;10.70;;;0.70;99.90;;;;;;4974077;28;20053;-76
2023/03/09 03:22:22;;;;;;;19.25;11.43;;;0.70;99.90;;;;;;4973472;28;20129;-74
2023/03/09 03:24:48;;;;;;;18.48;10.98;;;0.70;99.90;;;;;;4990783;28;20761;-76
2023/03/09 03:27:14;;;;;;;18.90;11.40;;;0.70;99.90;;;;;;4973491;28;20593;-75
2023/03/09 03:29:40;;;;;;;18.25;10.23;;;0.70;99.90;;;;;;4991288;28;20413;-76
2023/03/09 03:32:06;;;;;;;19.40;11.05;;;0.70;99.90;;;;;;4990600;28;20045;-75
2023/03/09 03:34:32;;;;;;;20.50;11.00;;;0.70;99.90;;;;;;4973544;28;20054;-75
2023/03/09 03:36:58;;;;;;;19.40;10.73;;;0.70;99.90;;;;;;4990830;28;20042;-75
2023/03/09 03:39:23;;;;;;;20.27;12.15;;;0.70;99.90;;;;;;4991073;28;20050;-76
2023/03/09 03:41:49;;;;;;;22.25;11.02;;;1.50;99.90;;;;;;4990844;28;20042;-76
2023/03/09 03:44:15;;;;;;;20.27;11.20;;;0.70;99.90;;;;;;4973578;28;20397;-76
2023/03/09 03:46:40;;;;;;;20.77;11.52;;;0.70;99.90;;;;;;4990974;28;20125;-77
2023/03/09 03:49:06;;;;;;;19.15;10.77;;;0.70;99.90;;;;;;4973442;28;20064;-76
2023/03/09 03:51:32;;;;;;;21.63;12.15;;;0.70;99.90;;;;;;4991222;28;20405;-77
2023/03/09 03:53:57;;;;;;;22.50;11.98;;;0.70;99.90;;;;;;4990325;28;20042;-76
2023/03/09 03:56:23;;;;;;;21.15;11.55;;;0.70;99.90;;;;;;4990757;28;20428;-75
2023/03/09 03:58:49;;;;;;;24.33;12.07;;;0.70;99.90;;;;;;4990655;28;20493;-76
2023/03/09 04:01:14;;;;;;;26.10;12.95;;;0.70;99.90;;;;;;4990929;28;20077;-75
2023/03/09 04:03:40;;;;;;;24.58;12.77;;;0.70;99.90;;;;;;4989825;28;20129;-74
2023/03/09 04:06:06;;;;;;;21.70;11.75;;;0.70;99.90;;;;;;4990383;28;20129;-76
2023/03/09 04:08:32;;;;;;;26.27;13.93;;;0.80;99.90;;;;;;4973603;28;20050;-77
2023/03/09 04:10:57;;;;;;;25.48;12.95;;;0.70;99.90;;;;;;4973138;28;20733;-76
2023/03/09 04:13:23;;;;;;;24.67;13.88;;;0.70;99.90;;;;;;4990482;28;20058;-76
2023/03/09 04:15:49;;;;;;;24.27;12.55;;;0.70;99.90;;;;;;4972645;28;20042;-75
2023/03/09 04:18:15;;;;;;;23.10;13.25;;;0.70;99.90;;;;;;4990393;28;20104;-75
2023/03/09 04:20:42;;;;;;;23.08;13.05;;;0.70;99.90;;;;;;4973003;28;20050;-77
2023/03/09 04:23:10;;;;;;;25.13;13.18;;;0.60;99.90;;;;;;4990308;28;20113;-74
2023/03/09 04:25:35;;;;;;;26.23;12.90;;;0.60;99.90;;;;;;4972077;28;20054;-76
2023/03/09 04:28:02;;;;;;;24.67;13.35;;;0.60;99.90;;;;;;4990240;28;20131;-76
2023/03/09 04:30:27;;;;;;;24.58;13.18;;;0.60;99.90;;;;;;4990490;28;20130;-76
2023/03/09 04:32:53;;;;;;;24.50;13.80;;;0.60;99.90;;;;;;4990448;28;20477;-76
2023/03/09 04:35:19;;;;;;;29.33;13.63;;;0.60;99.90;;;;;;4990555;28;20524;-76
2023/03/09 04:37:45;;;;;;;21.90;12.63;;;0.50;99.90;;;;;;4990471;28;20089;-75
2023/03/09 04:40:11;;;;;;;23.02;13.38;;;0.60;99.90;;;;;;4972865;28;20410;-77
2023/03/09 04:42:37;;;;;;;24.17;13.27;;;0.60;99.90;;;;;;4990185;28;20125;-76
2023/03/09 04:45:04;;;;;;;24.33;13.77;;;0.60;99.90;;;;;;4989938;28;20150;-76
2023/03/09 04:47:30;;;;;;;29.38;15.00;;;0.60;99.90;;;;;;4989560;28;20061;-77
2023/03/09 04:49:56;;;;;;;25.55;13.77;;;0.60;99.90;;;;;;4999578;28;20085;-76
2023/03/09 04:52:21;;;;;;;28.38;14.73;;;0.60;99.90;;;;;;4970706;28;20465;-76
2023/03/09 04:54:48;;;;;;;29.67;14.77;;;0.60;99.90;;;;;;4982267;28;20046;-77
2023/03/09 04:57:14;;;;;;;28.70;15.60;;;0.60;99.90;;;;;;4989605;28;20386;-76
2023/03/09 04:59:40;;;;;;;29.88;15.40;;;0.60;99.90;;;;;;4972472;28;20062;-76
2023/03/09 05:02:06;;;;;;;26.10;14.88;;;0.60;99.90;;;;;;4972813;28;20043;-76
2023/03/09 05:04:32;;;;;;;32.40;15.95;;;0.50;99.90;;;;;;4990037;28;20100;-76
2023/03/09 05:06:57;;;;;;;29.15;15.25;;;0.10;99.90;;;;;;4972666;28;20041;-76
2023/03/09 05:09:23;;;;;;;30.55;14.38;;;0.50;99.90;;;;;;4989977;28;20121;-76
2023/03/09 05:11:52;;;;;;;33.88;16.95;;;1.10;99.90;;;;;;4990142;28;20089;-76
2023/03/09 05:14:21;;;;;;;27.58;15.95;;;0.60;99.90;;;;;;4989550;28;20038;-75
2023/03/09 05:16:51;;;;;;;29.25;16.23;;;0.60;99.90;;;;;;4990440;28;20050;-76
2023/03/09 05:19:17;;;;;;;29.75;17.02;;;0.60;99.90;;;;;;4989716;28;20050;-79
2023/03/09 05:21:43;;;;;;;32.05;16.38;;;0.60;99.90;;;;;;4989589;28;20049;-76
2023/03/09 05:24:09;;;;;;;31.17;15.60;;;0.60;99.90;;;;;;4989396;28;20596;-76
2023/03/09 05:26:34;;;;;;;32.63;15.77;;;0.60;99.90;;;;;;4971648;28;20073;-76
2023/03/09 05:29:00;;;;;;;27.50;14.68;;;0.50;99.90;;;;;;4991282;28;20058;-76
2023/03/09 05:31:25;;;;;;;30.85;15.60;;;0.60;99.90;;;;;;4976058;28;20589;-75
2023/03/09 05:33:54;;;;;;;25.60;13.63;;;0.60;99.90;;;;;;4992824;28;20133;-76
2023/03/09 05:36:25;;;;;;;26.02;13.63;;;0.60;99.90;;;;;;4975696;28;20573;-75
2023/03/09 05:38:52;;;;;;;26.75;14.52;;;0.60;99.90;;;;;;4993653;28;20051;-75
2023/03/09 05:41:18;;;;;;;23.92;13.15;;;0.60;99.90;;;;;;4993152;28;20425;-78
2023/03/09 05:43:44;;;;;;;25.90;13.02;;;0.60;99.90;;;;;;4975553;28;20042;-76
2023/03/09 05:46:12;;;;;;;23.50;13.07;;;0.60;99.90;;;;;;4993667;28;20401;-75
2023/03/09 05:48:39;;;;;;;24.77;14.05;;;0.60;99.90;;;;;;4975760;28;20050;-76
2023/03/09 05:51:05;;;;;;;26.40;13.82;;;0.60;99.90;;;;;;4993789;28;20061;-76
2023/03/09 05:53:32;;;;;;;30.00;13.75;;;0.60;99.90;;;;;;4993268;28;20042;-75
2023/03/09 05:55:58;;;;;;;25.55;13.57;;;0.60;99.90;;;;;;4992808;28;20177;-77
2023/03/09 05:58:24;;;;;;;25.45;13.10;;;0.60;99.90;;;;;;4992980;28;20425;-76
2023/03/09 06:00:52;;;;;;;27.83;14.05;;;0.60;99.90;;;;;;4992933;28;20052;-76
2023/03/09 06:03:18;;;;;;;24.27;13.65;;;0.60;99.90;;;;;;4993080;28;20065;-78
2023/03/09 06:05:44;;;;;;;26.25;14.02;;;0.60;99.90;;;;;;4992799;28;20038;-76
2023/03/09 06:08:10;;;;;;;26.42;14.23;;;0.60;99.90;;;;;;4975561;28;20058;-76
2023/03/09 06:10:36;;;;;;;28.38;14.45;;;0.60;99.90;;;;;;4992822;28;20088;-76
2023/03/09 06:13:02;;;;;;;23.77;13.02;;;1.10;99.90;;;;;;4992656;28;20050;-77
2023/03/09 06:15:28;;;;;;;27.92;14.75;;;0.60;99.90;;;;;;4975272;28;20484;-76
2023/03/09 06:17:54;;;;;;;30.83;14.45;;;0.60;99.90;;;;;;4992098;28;20044;-76
2023/03/09 06:20:20;;;;;;;26.83;14.02;;;0.70;99.90;;;;;;4992557;28;20046;-76
2023/03/09 06:22:46;;;;;;;25.75;14.02;;;0.60;99.90;;;;;;4992498;28;20406;-77
2023/03/09 06:25:12;;;;;;;28.83;14.82;;;0.70;99.90;;;;;;4992109;28;20065;-77
2023/03/09 06:27:39;;;;;;;23.45;12.93;;;0.70;99.90;;;;;;4992238;28;20104;-76
2023/03/09 06:30:05;;;;;;;22.33;12.68;;;0.70;99.90;;;;;;4974526;28;20090;-76
2023/03/09 06:32:32;;;;;;;26.98;14.40;;;0.70;99.90;;;;;;4974960;28;20053;-76
2023/03/09 06:34:58;;;;;;;25.17;14.15;;;0.70;99.90;;;;;;4992000;28;20046;-76
2023/03/09 06:37:24;;;;;;;24.08;13.55;;;0.70;99.90;;;;;;4991998;28;20437;-77
2023/03/09 06:39:50;;;;;;;23.02;13.55;;;0.70;99.90;;;;;;4992378;28;20054;-77
2023/03/09 06:42:15;;;;;;;26.08;13.93;;;0.70;99.90;;;;;;4975199;28;20402;-75
2023/03/09 06:44:42;;;;;;;23.02;13.52;;;0.80;99.90;;;;;;4974733;28;20047;-77
2023/03/09 06:47:09;;;;;;;22.60;13.93;;;0.80;99.90;;;;;;4992603;28;20046;-77
2023/03/09 06:49:34;;;;;;;25.70;14.32;;;0.80;99.90;;;;;;4974348;28;20050;-77
2023/03/09 06:52:00;;;;;;;25.40;13.57;;;0.80;99.90;;;;;;4975034;28;20131;-76
2023/03/09 06:54:26;;;;;;;24.65;13.77;;;0.80;99.90;;;;;;4992134;28;20545;-77
2023/03/09 06:56:52;;;;;;;22.33;12.70;;;0.80;99.90;;;;;;4992344;28;20054;-76
2023/03/09 06:59:18;;;;;;;21.50;13.00;;;0.80;99.90;;;;;;4991674;28;20674;-77
2023/03/09 07:01:44;;;;;;;28.13;14.15;;;0.80;99.90;;;;;;4991577;28;20482;-76
2023/03/09 07:04:10;;;;;;;25.25;13.90;;;0.80;99.90;;;;;;4991878;28;20061;-75
2023/03/09 07:06:35;;;;;;;25.13;14.00;;;0.90;99.90;;;;;;4991968;28;20046;-76
2023/03/09 07:09:01;;;;;;;22.58;13.80;;;0.90;99.90;;;;;;4973822;28;20065;-76
2023/03/09 07:11:26;;;;;;;26.52;13.60;;;0.90;99.90;;;;;;4991891;28;20038;-76
2023/03/09 07:13:52;;;;;;;25.60;14.32;;;1.00;99.90;;;;;;4991659;28;20042;-77
2023/03/09 07:16:18;;;;;;;26.42;13.52;;;1.00;99.90;;;;;;4974009;28;20086;-76
2023/03/09 07:18:43;;;;;;;23.95;13.07;;;1.00;99.90;;;;;;4991418;28;20026;-77
2023/03/09 07:21:09;;;;;;;25.27;13.38;;;1.10;99.90;;;;;;5005128;28;20690;-76
2023/03/09 07:23:36;;;;;;;27.30;14.40;;;1.10;99.90;;;;;;4973206;28;20046;-79
2023/03/09 07:26:03;;;;;;;26.58;14.63;;;1.20;99.90;;;;;;4974031;28;20501;-76
2023/03/09 07:28:30;;;;;;;24.65;14.50;;;1.20;99.90;;;;;;4992021;28;20493;-80
2023/03/09 07:30:55;;;;;;;22.98;13.73;;;1.20;99.90;;;;;;4973781;28;20069;-77
2023/03/09 07:33:21;;;;;;;24.13;13.65;;;1.30;99.90;;;;;;4991269;28;20497;-77
2023/03/09 07:35:47;;;;;;;21.15;12.20;;;1.30;99.90;;;;;;4990863;28;20046;-77
2023/03/09 07:38:12;;;;;;;24.33;13.18;;;1.30;99.90;;;;;;4990945;28;20045;-76
2023/03/09 07:40:38;;;;;;;21.05;13.00;;;1.30;99.90;;;;;;4989109;28;20695;-80
2023/03/09 07:43:04;;;;;;;23.80;13.15;;;1.40;99.90;;;;;;4994787;28;20058;-76
2023/03/09 07:45:29;;;;;;;23.17;13.40;;;1.40;99.90;;;;;;4991368;28;20054;-81
2023/03/09 07:47:55;;;;;;;21.67;11.98;;;1.40;99.90;;;;;;4973465;28;20120;-81
2023/03/09 07:50:21;;;;;;;23.92;12.52;;;1.40;99.90;;;;;;4990868;28;20050;-77
2023/03/09 07:52:47;;;;;;;22.08;13.30;;;1.50;99.90;;;;;;5005258;28;20061;-78
2023/03/09 07:55:13;;;;;;;21.45;13.57;;;1.50;99.90;;;;;;4974231;28;20509;-77
2023/03/09 07:57:40;;;;;;;21.15;12.40;;;1.50;99.90;;;;;;4953735;28;20182;-81
2023/03/09 08:00:12;;;;;;;21.35;12.07;;;1.60;99.90;;;;;;4971557;28;20043;-82
2023/03/09 08:02:39;;;;;;;21.55;12.18;;;1.60;99.90;;;;;;4971084;28;20058;-81
2023/03/09 08:05:08;;;;;;;21.02;12.68;;;1.70;99.90;;;;;;4981036;28;20050;-80
2023/03/09 08:07:34;;;;;;;20.15;11.40;;;1.80;99.90;;;;;;4988364;28;20061;-76
2023/03/09 08:09:59;;;;;;;20.60;12.00;;;1.80;99.90;;;;;;4990515;28;20042;-81
2023/03/09 08:12:25;;;;;;;21.98;11.98;;;1.90;99.90;;;;;;4991038;28;20061;-77
2023/03/09 08:14:50;;;;;;;19.00;11.23;;;1.90;99.90;;;;;;4990258;28;20052;-77
2023/03/09 08:17:16;;;;;;;19.10;10.68;;;2.00;99.90;;;;;;4990669;28;20036;-81
2023/03/09 08:19:42;;;;;;;23.55;11.10;;;2.00;99.90;;;;;;4987170;28;20046;-79
2023/03/09 08:22:07;;;;;;;22.52;11.20;;;2.60;99.90;;;;;;4990556;28;20046;-75
2023/03/09 08:24:33;;;;;;;21.33;11.23;;;2.20;99.90;;;;;;4972744;28;20074;-78
2023/03/09 08:26:59;;;;;;;19.40;11.00;;;2.20;99.90;;;;;;4990413;28;20143;-74
2023/03/09 08:29:24;;;;;;;20.67;11.90;;;2.30;99.90;;;;;;4990368;28;20551;-74
2023/03/09 08:31:50;;;;;;;18.33;10.73;;;2.60;99.90;;;;;;4990582;28;20046;-79
2023/03/09 08:34:19;;;;;;;17.75;10.30;;;2.30;99.90;;;;;;4972795;28;20478;-77
2023/03/09 08:36:45;;;;;;;17.05;10.70;;;2.30;99.90;;;;;;4971785;28;20081;-77
2023/03/09 08:39:11;;;;;;;16.70;10.20;;;2.40;99.90;;;;;;4990153;28;20046;-77
2023/03/09 08:41:36;;;;;;;16.95;9.80;;;2.50;99.90;;;;;;4972861;28;20050;-78
2023/03/09 08:44:02;;;;;;;15.40;9.80;;;2.50;99.90;;;;;;4989880;28;20104;-81
2023/03/09 08:46:28;;;;;;;18.60;10.60;;;2.50;99.90;;;;;;4990213;28;20539;-82
2023/03/09 08:48:56;;;;;;;19.23;10.45;;;2.60;99.90;;;;;;4972587;28;20046;-77
2023/03/09 08:51:21;;;;;;;19.02;10.02;;;2.70;99.90;;;;;;4990530;28;20065;-77
2023/03/09 08:53:47;;;;;;;21.35;10.30;;;2.90;99.90;;;;;;4972850;28;20050;-77
2023/03/09 08:56:13;;;;;;;17.58;10.80;;;3.00;99.90;;;;;;4972373;28;20049;-81
2023/03/09 08:58:39;;;;;;;17.23;10.20;;;3.10;99.90;;;;;;4989953;28;20065;-77
2023/03/09 09:01:10;;;;;;;18.27;10.13;;;3.30;99.90;;;;;;4988460;28;20065;-80
2023/03/09 09:03:38;;;;;;;15.52;9.32;;;3.40;99.90;;;;;;4990943;28;20054;-81
2023/03/09 09:06:15;;;;;;;14.45;8.63;;;3.50;99.90;;;;;;4977633;28;20054;-81
2023/03/09 09:08:41;;;;;;;16.42;8.93;;;3.80;99.90;;;;;;4994758;28;20540;-78
2023/03/09 09:11:13;;;;;;;13.35;7.82;;;3.90;99.90;;;;;;4977248;28;20061;-80
2023/03/09 09:13:39;;;;;;;12.82;8.85;;;4.00;99.90;;;;;;4976817;28;20074;-78
2023/03/09 09:16:05;;;;;;;14.55;8.43;;;4.10;99.90;;;;;;4994773;28;20042;-79
2023/03/09 09:18:32;;;;;;;13.02;7.95;;;4.30;99.90;;;;;;4994278;28;20050;-81
2023/03/09 09:20:58;;;;;;;12.10;8.13;;;4.60;99.90;;;;;;4994592;28;20050;-75
2023/03/09 09:23:24;;;;;;;14.25;8.40;;;4.20;99.90;;;;;;4994455;28;20071;-81
2023/03/09 09:25:56;;;;;;;14.05;8.45;;;4.20;99.90;;;;;;4976363;28;20054;-75
2023/03/09 09:28:23;;;;;;;13.45;8.45;;;4.30;99.90;;;;;;5008727;28;20055;-77
2023/03/09 09:31:00;;;;;;;14.00;8.02;;;4.40;99.90;;;;;;4977046;28;20030;-82
2023/03/09 09:33:31;;;;;;;13.13;7.50;;;4.50;99.90;;;;;;4993672;28;20108;-76
2023/03/09 09:35:59;;;;;;;11.23;7.28;;;4.40;99.90;;;;;;4994648;28;20069;-77
2023/03/09 09:38:27;;;;;;;12.23;7.95;;;4.40;99.90;;;;;;4994422;28;20057;-77
2023/03/09 09:40:55;;;;;;;11.80;7.78;;;4.40;99.90;;;;;;4976961;28;20046;-81
2023/03/09 09:43:22;;;;;;;13.35;7.85;;;4.50;99.90;;;;;;4993925;28;20525;-80
2023/03/09 09:45:49;;;;;;;13.98;6.95;;;4.60;99.90;;;;;;4994398;28;20050;-78
2023/03/09 09:48:17;;;;;;;12.35;7.60;;;4.70;99.90;;;;;;4975881;28;20058;-78
2023/03/09 09:51:14;;;;;;;13.15;7.72;;;4.80;99.90;;;;;;4993987;28;20136;-77
2023/03/09 09:54:17;;;;;;;12.85;7.68;;;4.90;99.90;;;;;;4993424;28;20050;-82
2023/03/09 09:56:47;;;;;;;12.05;7.55;;;5.00;99.90;;;;;;4993604;28;20137;-76
2023/03/09 09:59:23;;;;;;;12.07;7.10;;;5.00;99.90;;;;;;4993914;28;20046;-78
2023/03/09 10:02:01;;;;;;;11.85;7.85;;;5.50;99.90;;;;;;4976280;28;20046;-77
2023/03/09 10:04:35;;;;;;;11.70;7.50;;;4.90;99.90;;;;;;4993104;28;20479;-78
2023/03/09 10:07:17;;;;;;;11.60;7.35;;;4.90;99.90;;;;;;4993367;28;20509;-76
2023/03/09 10:09:47;;;;;;;12.55;7.22;;;4.90;99.90;;;;;;4992810;28;20498;-78
2023/03/09 10:12:16;;;;;;;10.90;6.43;;;4.90;99.90;;;;;;4975802;28;20062;-76
2023/03/09 10:14:53;;;;;;;12.60;7.65;;;4.90;99.90;;;;;;4993057;28;20064;-75
2023/03/09 10:17:24;;;;;;;20.27;7.97;;;5.00;99.90;;;;;;4993005;28;20511;-77
2023/03/09 10:19:51;;;;;;;10.18;6.88;;;5.00;99.90;;;;;;4975414;28;20061;-80
2023/03/09 10:22:25;;;;;;;9.77;6.88;;;5.00;99.90;;;;;;4992907;28;20463;-77
2023/03/09 10:24:53;;;;;;;13.20;6.70;;;5.10;99.90;;;;;;4975748;28;20118;-74
2023/03/09 10:27:31;;;;;;;11.40;6.07;;;5.10;99.90;;;;;;4992966;28;20054;-76
2023/03/09 10:30:09;;;;;;;10.40;6.53;;;5.20;99.90;;;;;;4992941;28;20398;-76
2023/03/09 10:32:40;;;;;;;10.80;6.15;;;5.30;99.90;;;;;;4992974;28;20046;-74
2023/03/09 10:35:19;;;;;;;9.60;5.80;;;5.30;99.90;;;;;;4992827;28;20061;-76
2023/03/09 10:37:50;;;;;;;9.02;5.97;;;5.40;99.90;;;;;;4992913;28;20078;-75
2023/03/09 10:40:20;;;;;;;8.38;5.97;;;5.30;99.90;;;;;;4993143;28;20054;-74
2023/03/09 10:42:46;;;;;;;10.15;6.45;;;5.30;99.90;;;;;;4972107;28;20478;-75
2023/03/09 10:45:12;;;;;;;10.20;6.53;;;5.30;99.90;;;;;;4992637;28;20077;-76
2023/03/09 10:47:53;;;;;;;10.30;6.80;;;5.30;99.90;;;;;;4993236;28;20101;-78
2023/03/09 10:50:21;;;;;;;9.57;6.13;;;5.40;99.90;;;;;;4992417;28;20053;-75
2023/03/09 10:52:48;;;;;;;10.43;6.35;;;5.40;99.90;;;;;;4992206;28;20046;-75
2023/03/09 10:55:25;;;;;;;9.15;5.75;;;5.70;99.90;;;;;;4992601;28;20050;-76
2023/03/09 10:58:00;;;;;;;12.82;6.93;;;5.50;99.90;;;;;;4992679;28;20050;-78
2023/03/09 11:00:26;;;;;;;9.68;6.13;;;5.50;99.90;;;;;;4975151;28;20050;-75
2023/03/09 11:02:59;;;;;;;12.10;6.55;;;5.60;99.90;;;;;;4982627;28;20050;-80
2023/03/09 11:05:29;;;;;;;10.90;6.93;;;5.50;99.90;;;;;;4992559;28;20061;-77
2023/03/09 11:08:02;;;;;;;9.60;5.88;;;5.40;99.90;;;;;;4992477;28;20473;-76
2023/03/09 11:10:30;;;;;;;10.20;6.47;;;5.60;99.90;;;;;;4991337;28;20547;-77
2023/03/09 11:12:57;;;;;;;12.00;6.78;;;5.30;99.90;;;;;;4988850;28;20133;-76
2023/03/09 11:15:28;;;;;;;10.80;6.85;;;5.30;99.90;;;;;;4992257;28;20042;-75
2023/03/09 11:17:55;;;;;;;13.77;7.47;;;5.20;99.90;;;;;;4991945;28;20505;-77
2023/03/09 11:20:36;;;;;;;10.40;6.43;;;5.20;99.90;;;;;;4991919;28;20097;-75
2023/03/09 11:23:32;;;;;;;12.38;6.57;;;5.20;99.90;;;;;;4992493;28;20122;-76
2023/03/09 11:26:10;;;;;;;10.15;6.35;;;5.20;99.90;;;;;;4991100;28;20065;-76
2023/03/09 11:28:58;;;;;;;9.77;6.28;;;5.30;99.90;;;;;;4973837;28;20565;-76
2023/03/09 11:31:32;;;;;;;10.80;6.47;;;5.30;99.90;;;;;;4987465;28;20046;-78
2023/03/09 11:33:58;;;;;;;11.93;6.88;;;5.40;99.90;;;;;;4972564;28;20053;-77
2023/03/09 11:36:52;;;;;;;10.38;5.93;;;5.40;99.90;;;;;;4988028;28;20145;-76
2023/03/09 11:39:33;;;;;;;10.65;6.72;;;5.70;99.90;;;;;;4992007;28;20046;-78
2023/03/09 11:42:01;;;;;;;10.15;6.50;;;5.50;99.90;;;;;;4974746;28;20042;-75
2023/03/09 11:44:34;;;;;;;9.98;6.45;;;5.50;99.90;;;;;;4991128;28;20057;-76
2023/03/09 11:47:05;;;;;;;9.73;6.72;;;5.40;99.90;;;;;;4991882;28;20462;-75
2023/03/09 11:49:33;;;;;;;11.85;6.93;;;5.40;99.90;;;;;;4970913;28;20047;-76
2023/03/09 11:51:59;;;;;;;11.60;6.85;;;5.40;99.90;;;;;;4972194;28;20089;-82
2023/03/09 11:54:27;;;;;;;17.45;11.13;;;5.50;99.90;;;;;;4979284;28;20050;-76
2023/03/09 11:56:54;;;;;;;13.68;6.03;;;5.50;99.90;;;;;;4993462;28;20124;-75
2023/03/09 11:59:31;;;;;;;9.40;5.90;;;5.40;99.90;;;;;;4996345;28;20049;-74
2023/03/09 12:02:15;;;;;;;8.98;5.95;;;5.40;99.90;;;;;;4991390;28;20047;-75
2023/03/09 12:04:46;;;;;;;10.07;6.20;;;5.50;99.90;;;;;;4991532;28;20046;-77
2023/03/09 12:07:33;;;;;;;11.07;6.63;;;5.50;99.90;;;;;;4991213;28;20065;-75
2023/03/09 12:10:37;;;;;;;9.30;6.18;;;5.60;99.90;;;;;;4991394;28;20086;-75
2023/03/09 12:13:37;;;;;;;9.75;6.35;;;5.50;99.90;;;;;;4983743;28;20406;-77
2023/03/09 12:16:05;;;;;;;8.90;5.60;;;5.60;99.90;;;;;;4949855;29;20071;-77
2023/03/09 12:18:38;;;;;;;7.95;5.25;;;5.60;99.90;;;;;;4950088;29;20067;-75
2023/03/09 12:21:07;;;;;;;10.25;5.57;;;5.60;99.90;;;;;;4949339;29;20150;-80
2023/03/09 12:23:35;;;;;;;8.30;5.82;;;5.70;99.90;;;;;;4949682;29;20055;-76
2023/03/09 12:26:29;;;;;;;7.65;5.40;;;5.70;99.90;;;;;;4949027;29;20106;-78
2023/03/09 12:29:15;;;;;;;9.57;6.43;;;5.70;99.90;;;;;;4949853;29;20053;-78
2023/03/09 12:31:41;;;;;;;7.93;5.78;;;5.60;99.90;;;;;;4949848;29;20051;-75
2023/03/09 12:34:09;;;;;;;9.13;5.95;;;5.60;99.90;;;;;;4949379;29;20155;-76
2023/03/09 12:36:39;;;;;;;11.20;5.70;;;5.60;99.90;;;;;;4949185;28;20039;-74
2023/03/09 12:39:26;;;;;;;8.20;5.45;;;5.70;99.90;;;;;;4949674;29;20051;-77
2023/03/09 12:42:08;;;;;;;8.27;6.15;;;5.60;99.90;;;;;;4949248;29;20130;-75
2023/03/09 12:45:00;;;;;;;8.63;5.60;;;5.60;99.90;;;;;;4949560;29;20579;-76
2023/03/09 12:47:43;;;;;;;8.73;5.65;;;5.60;99.90;;;;;;4949549;29;20157;-76
2023/03/09 12:50:36;;;;;;;8.65;6.00;;;5.40;99.90;;;;;;4933210;29;20129;-74